Auburn, Iowa
Current Conditions -  °F | °C
As of 2:35 AM on Friday 28 Nov 2014 (Local Time) from KCIN Reporting Station
Clear Clear  
Wind Chill:   Ceiling: Unl
Heat Index: 16°   Visibility: 10mi
Dew Point: 12°   Wind: 9mph
Humidity: 86%   Direction: 130°SE
Pressure: 30.04"   Gusts: NA
Location:  42.25°N, 94.88°W
Report Text: KCIN 280835Z AUTO 13008KT 10SM CLR M09/M11 A3004 RMK AO2
Loading
Personal Weather Stations






























Interactive Weather Map New forecast layout! Learn more

10-Day Weather Forecast

Advertisements
Track Severe Weather on mobile